createdAt,value
2018-12-31T00:01:47.916Z,16.67
2018-12-31T00:04:16.396Z,15.63
2018-12-31T00:06:44.584Z,16.57
2018-12-31T00:09:12.708Z,17.87
2018-12-31T00:11:41.354Z,16.80
2018-12-31T00:14:10.209Z,17.07
2018-12-31T00:16:38.399Z,15.97
2018-12-31T00:19:06.670Z,16.87
2018-12-31T00:21:35.369Z,15.33
2018-12-31T00:24:03.529Z,18.17
2018-12-31T00:26:50.854Z,16.77
2018-12-31T00:29:19.041Z,16.90
2018-12-31T00:31:48.220Z,17.67
2018-12-31T00:34:25.130Z,17.13
2018-12-31T00:37:22.932Z,16.60
2018-12-31T00:39:51.502Z,18.00
2018-12-31T00:42:19.667Z,17.17
2018-12-31T00:44:48.840Z,16.50
2018-12-31T00:47:24.999Z,16.83
2018-12-31T00:49:56.105Z,16.57
2018-12-31T00:52:44.557Z,16.03
2018-12-31T00:55:17.368Z,16.47
2018-12-31T00:57:50.220Z,17.83
2018-12-31T01:00:21.077Z,18.23
2018-12-31T01:02:49.254Z,16.00
2018-12-31T01:05:17.417Z,17.67
2018-12-31T01:07:45.899Z,16.97
2018-12-31T01:10:15.110Z,17.87
2018-12-31T01:12:43.340Z,17.87
2018-12-31T01:15:11.441Z,17.37
2018-12-31T01:17:39.614Z,17.90
2018-12-31T01:20:07.784Z,19.57
2018-12-31T01:22:35.962Z,18.33
2018-12-31T01:25:04.241Z,18.17
2018-12-31T01:27:33.421Z,20.03
2018-12-31T01:30:01.613Z,20.10
2018-12-31T01:32:29.784Z,19.07
2018-12-31T01:34:57.965Z,20.43
2018-12-31T01:37:26.095Z,21.30
2018-12-31T01:39:55.519Z,19.37
2018-12-31T01:42:25.015Z,20.20
2018-12-31T01:44:54.236Z,21.37
2018-12-31T01:47:22.407Z,21.37
2018-12-31T01:49:50.561Z,20.50
2018-12-31T01:52:18.752Z,20.03
2018-12-31T01:54:46.924Z,20.23
2018-12-31T01:57:15.410Z,22.20
2018-12-31T01:59:43.579Z,21.83
2018-12-31T02:02:12.772Z,20.40
2018-12-31T02:04:42.958Z,20.87
2018-12-31T02:07:11.073Z,22.63
2018-12-31T02:09:41.603Z,21.07
2018-12-31T02:12:10.073Z,19.47
2018-12-31T02:14:38.245Z,21.10
2018-12-31T02:17:27.634Z,20.30
2018-12-31T02:20:15.102Z,19.07
2018-12-31T02:23:35.846Z,19.33
2018-12-31T02:26:04.938Z,19.43
2018-12-31T02:28:34.383Z,20.37
2018-12-31T02:31:02.517Z,19.07
2018-12-31T02:33:32.741Z,18.87
2018-12-31T02:36:00.917Z,18.80
2018-12-31T02:38:29.325Z,18.37
2018-12-31T02:40:57.710Z,18.57
2018-12-31T02:43:25.837Z,18.33
2018-12-31T02:45:53.989Z,16.90
2018-12-31T02:48:22.206Z,19.90
2018-12-31T02:50:51.385Z,18.50
2018-12-31T02:53:19.555Z,18.30
2018-12-31T02:55:48.102Z,16.40
2018-12-31T02:58:17.233Z,17.03
2018-12-31T03:00:45.720Z,17.43
2018-12-31T03:03:13.789Z,16.80
2018-12-31T03:05:41.969Z,15.43
2018-12-31T03:08:11.168Z,15.43
2018-12-31T03:10:40.352Z,15.50
2018-12-31T03:13:08.523Z,15.17
2018-12-31T03:15:36.687Z,16.47
2018-12-31T03:18:05.457Z,16.93
2018-12-31T03:20:33.660Z,16.50
2018-12-31T03:23:01.834Z,16.17
2018-12-31T03:25:31.039Z,16.10
2018-12-31T03:27:59.511Z,17.43
2018-12-31T03:30:27.803Z,18.70
2018-12-31T03:32:56.978Z,17.53
2018-12-31T03:35:25.385Z,18.87
2018-12-31T03:37:54.791Z,17.50
2018-12-31T03:40:24.221Z,16.70
2018-12-31T03:42:52.315Z,16.40
2018-12-31T03:45:21.550Z,18.70
2018-12-31T03:47:49.727Z,17.03
2018-12-31T03:50:17.896Z,16.70
2018-12-31T03:52:46.054Z,18.20
2018-12-31T03:55:14.241Z,18.50
2018-12-31T03:57:42.393Z,16.00
2018-12-31T04:00:10.611Z,14.93
2018-12-31T04:02:39.763Z,15.43
2018-12-31T04:05:07.967Z,18.17
2018-12-31T04:07:36.140Z,16.97
2018-12-31T04:10:05.340Z,16.70
2018-12-31T04:12:33.762Z,15.53
2018-12-31T04:15:01.990Z,15.67
2018-12-31T04:17:30.272Z,15.70
2018-12-31T04:20:02.837Z,15.90
2018-12-31T04:22:31.002Z,16.73
2018-12-31T04:24:59.483Z,15.80
2018-12-31T04:27:27.894Z,15.33
2018-12-31T04:29:56.033Z,13.80
2018-12-31T04:32:28.469Z,13.80
2018-12-31T04:34:56.684Z,15.00
2018-12-31T04:37:25.847Z,13.20
2018-12-31T04:39:54.050Z,13.37
2018-12-31T04:42:22.209Z,13.47
2018-12-31T04:44:51.430Z,13.23
2018-12-31T04:47:19.600Z,13.80
2018-12-31T04:49:49.800Z,13.07
2018-12-31T04:52:17.991Z,14.87
2018-12-31T04:54:46.172Z,12.50
2018-12-31T04:57:15.360Z,13.50
2018-12-31T04:59:43.535Z,13.97
2018-12-31T05:02:11.982Z,13.00
2018-12-31T05:04:42.142Z,13.40
2018-12-31T05:07:11.344Z,13.90
2018-12-31T05:09:40.535Z,12.63
2018-12-31T05:12:08.723Z,13.73
2018-12-31T05:14:36.893Z,13.03
2018-12-31T05:17:06.364Z,13.43
2018-12-31T05:19:34.832Z,13.07
2018-12-31T05:22:03.358Z,13.30
2018-12-31T05:24:31.512Z,14.10
2018-12-31T05:27:00.681Z,13.50
2018-12-31T05:29:28.781Z,13.33
2018-12-31T05:31:57.982Z,15.77
2018-12-31T05:34:26.384Z,13.63
2018-12-31T05:36:54.532Z,13.30
2018-12-31T05:39:23.714Z,13.70
2018-12-31T05:41:52.953Z,12.87
2018-12-31T05:44:21.100Z,12.30
2018-12-31T05:46:49.539Z,14.50
2018-12-31T05:49:17.751Z,13.90
2018-12-31T05:51:45.963Z,12.77
2018-12-31T05:54:14.150Z,12.70
2018-12-31T05:56:42.266Z,12.93
2018-12-31T05:59:10.445Z,12.50
2018-12-31T06:01:38.626Z,12.63
2018-12-31T06:04:06.776Z,14.73
2018-12-31T06:06:36.005Z,13.60
2018-12-31T06:09:07.553Z,12.87
2018-12-31T06:11:35.712Z,12.47
2018-12-31T06:14:03.883Z,12.57
2018-12-31T06:16:32.066Z,11.60
2018-12-31T06:19:01.158Z,12.37
2018-12-31T06:21:29.302Z,12.50
2018-12-31T06:23:57.505Z,12.00
2018-12-31T06:26:25.626Z,11.40
2018-12-31T06:28:53.861Z,12.30
2018-12-31T06:31:22.241Z,12.10
2018-12-31T06:33:50.409Z,11.77
2018-12-31T06:36:19.611Z,11.30
2018-12-31T06:38:48.040Z,11.83
2018-12-31T06:41:16.251Z,11.10
2018-12-31T06:43:44.420Z,10.50
2018-12-31T06:46:12.814Z,10.83
2018-12-31T06:48:40.973Z,11.20
2018-12-31T06:51:10.170Z,10.30
2018-12-31T06:53:38.344Z,10.20
2018-12-31T06:56:06.505Z,11.00
2018-12-31T06:58:34.719Z,11.60
2018-12-31T07:01:02.925Z,11.83
2018-12-31T07:03:32.899Z,10.97
2018-12-31T07:06:01.876Z,11.60
2018-12-31T07:08:30.117Z,11.50
2018-12-31T07:10:58.222Z,11.70
2018-12-31T07:13:26.667Z,12.17
2018-12-31T07:15:55.145Z,12.23
2018-12-31T07:18:24.277Z,11.97
2018-12-31T07:20:52.458Z,11.53
2018-12-31T07:23:21.903Z,11.53
2018-12-31T07:25:52.076Z,11.87
2018-12-31T07:28:20.181Z,12.73
2018-12-31T07:30:48.291Z,12.10
2018-12-31T07:33:18.440Z,13.53
2018-12-31T07:36:17.805Z,12.05
2018-12-31T07:38:46.950Z,11.60
2018-12-31T07:41:15.347Z,10.80
2018-12-31T07:43:47.750Z,10.43
2018-12-31T07:46:15.835Z,9.43
2018-12-31T07:48:44.031Z,10.77
2018-12-31T07:51:12.205Z,10.87
2018-12-31T07:53:40.381Z,10.67
2018-12-31T07:56:08.561Z,10.17
2018-12-31T07:58:36.727Z,10.07
2018-12-31T08:01:04.909Z,9.47
2018-12-31T08:03:39.838Z,9.83
2018-12-31T08:06:09.056Z,10.57
2018-12-31T08:08:38.256Z,10.90
2018-12-31T08:11:08.728Z,9.30
2018-12-31T08:13:39.187Z,11.30
2018-12-31T08:16:08.648Z,9.90
2018-12-31T08:18:37.120Z,10.40
2018-12-31T08:21:06.276Z,9.57
2018-12-31T08:23:35.485Z,8.73
2018-12-31T08:26:04.914Z,9.53
2018-12-31T08:28:37.622Z,8.60
2018-12-31T08:31:15.959Z,8.07
2018-12-31T08:33:45.156Z,10.37
2018-12-31T08:36:13.331Z,8.80
2018-12-31T08:38:41.528Z,7.07
2018-12-31T08:41:11.726Z,8.05
2018-12-31T08:43:41.185Z,9.20
2018-12-31T08:46:09.694Z,7.67
2018-12-31T08:48:37.902Z,7.20
2018-12-31T08:51:07.074Z,6.93
2018-12-31T08:53:35.250Z,6.57
2018-12-31T08:56:05.860Z,6.87
2018-12-31T08:58:34.987Z,7.40
2018-12-31T09:01:04.203Z,7.97
2018-12-31T09:03:35.518Z,7.20
2018-12-31T09:06:03.899Z,6.53
2018-12-31T09:08:32.125Z,6.67
2018-12-31T09:11:01.275Z,6.40
2018-12-31T09:13:30.561Z,7.10
2018-12-31T09:16:02.227Z,7.37
2018-12-31T09:18:30.706Z,7.83
2018-12-31T09:21:02.283Z,7.20
2018-12-31T09:23:30.717Z,6.90
2018-12-31T09:26:00.849Z,6.47
2018-12-31T09:28:29.125Z,6.50
2018-12-31T09:30:59.247Z,6.10
2018-12-31T09:33:30.837Z,6.23
2018-12-31T09:35:58.960Z,6.10
2018-12-31T09:38:27.201Z,6.03
2018-12-31T09:40:56.359Z,6.20
2018-12-31T09:43:25.574Z,5.92
2018-12-31T09:45:53.851Z,5.80
2018-12-31T09:48:21.990Z,5.90
2018-12-31T09:50:51.422Z,5.37
2018-12-31T09:53:20.660Z,6.30
2018-12-31T09:55:49.791Z,5.77
2018-12-31T09:58:18.989Z,5.53
2018-12-31T10:00:48.209Z,6.30
2018-12-31T10:03:22.098Z,5.33
2018-12-31T10:06:05.287Z,5.70
2018-12-31T10:11:38.456Z,6.53
2018-12-31T10:14:12.551Z,5.30
2018-12-31T10:17:00.253Z,6.23
2018-12-31T10:19:28.856Z,5.57
2018-12-31T10:21:57.044Z,6.37
2018-12-31T10:24:25.210Z,5.67
2018-12-31T10:26:58.387Z,7.10
2018-12-31T10:29:26.568Z,6.10
2018-12-31T10:31:54.751Z,6.47
2018-12-31T10:34:22.854Z,6.60
2018-12-31T10:36:51.017Z,6.47
2018-12-31T10:39:19.224Z,6.00
2018-12-31T10:41:47.847Z,6.70
2018-12-31T10:44:19.319Z,6.50
2018-12-31T10:46:51.893Z,6.97
2018-12-31T10:49:21.337Z,7.47
2018-12-31T10:51:49.848Z,7.30
2018-12-31T10:54:19.317Z,7.50
2018-12-31T10:56:47.533Z,9.20
2018-12-31T10:59:15.699Z,8.30
2018-12-31T11:01:43.880Z,8.43
2018-12-31T11:04:12.469Z,9.70
2018-12-31T11:06:40.652Z,9.20
2018-12-31T11:09:08.846Z,8.13
2018-12-31T11:11:37.008Z,8.97
2018-12-31T11:14:06.200Z,7.30
2018-12-31T11:16:36.435Z,8.83
2018-12-31T11:19:04.564Z,8.83
2018-12-31T11:21:32.789Z,7.50
2018-12-31T11:24:01.490Z,7.60
2018-12-31T11:26:31.703Z,7.37
2018-12-31T11:29:00.173Z,6.33
2018-12-31T11:31:30.530Z,6.90
2018-12-31T11:33:57.484Z,6.87
2018-12-31T11:36:25.861Z,6.80
2018-12-31T11:38:54.367Z,7.33
2018-12-31T11:41:22.812Z,7.10
2018-12-31T11:43:51.064Z,7.00
2018-12-31T11:46:23.290Z,7.43
2018-12-31T11:48:51.461Z,6.77
2018-12-31T11:51:19.617Z,6.37
2018-12-31T11:53:47.894Z,6.00
2018-12-31T11:56:15.962Z,6.20
2018-12-31T11:58:44.234Z,6.40
2018-12-31T12:01:13.377Z,5.80
2018-12-31T12:03:41.540Z,5.50
2018-12-31T12:06:09.663Z,5.50
2018-12-31T12:08:38.831Z,5.73
2018-12-31T12:11:09.389Z,6.10
2018-12-31T12:13:37.850Z,5.57
2018-12-31T12:16:06.229Z,5.33
2018-12-31T12:18:34.452Z,5.77
2018-12-31T12:21:03.660Z,5.50
2018-12-31T12:23:31.852Z,5.00
2018-12-31T12:26:00.014Z,5.23
2018-12-31T12:28:28.459Z,5.40
2018-12-31T12:30:56.659Z,5.63
2018-12-31T12:33:24.816Z,5.93
2018-12-31T12:35:54.066Z,5.87
2018-12-31T12:38:22.255Z,5.90
2018-12-31T12:40:51.403Z,6.03
2018-12-31T12:43:19.573Z,6.70
2018-12-31T12:45:47.787Z,5.53
2018-12-31T12:48:16.198Z,6.53
2018-12-31T12:50:44.659Z,6.03
2018-12-31T12:53:13.150Z,5.73
2018-12-31T12:55:41.263Z,6.20
2018-12-31T12:58:09.427Z,6.43
2018-12-31T13:00:38.635Z,6.00
2018-12-31T13:03:06.799Z,6.70
2018-12-31T13:05:36.091Z,6.43
2018-12-31T13:08:04.309Z,6.67
2018-12-31T13:10:32.455Z,7.27
2018-12-31T13:13:00.868Z,7.43
2018-12-31T13:15:30.030Z,7.77
2018-12-31T13:17:58.253Z,9.20
2018-12-31T13:20:26.381Z,7.47
2018-12-31T13:22:54.549Z,8.83
2018-12-31T13:25:22.779Z,10.03
2018-12-31T13:27:51.009Z,7.27
